Time;durP1;ratioP1;P1;durP2;ratioP2;P2;SDS_P1;SDS_P2;PMS_P1;PMS_P2;Temp;Humidity;BMP_temperature;BMP_pressure;BME280_temperature;BME280_humidity;BME280_pressure;Samples;Min_cycle;Max_cycle;Signal;HPM_P1;HPM_P2
2020/12/13 00:02:10;;;;;;;22.03;12.60;;;;;7.90;100100.00;;;;10063054;29;20241;-74
2020/12/13 00:07:12;;;;;;;22.73;12.53;;;;;7.90;100100.00;;;;10032511;29;20201;-74
2020/12/13 00:12:15;;;;;;;22.20;13.03;;;;;7.90;100111.00;;;;10018124;29;20265;-74
2020/12/13 00:17:17;;;;;;;16.40;11.93;;;;;7.80;100107.00;;;;10032374;29;20227;-74
2020/12/13 00:22:19;;;;;;;23.73;12.77;;;;;7.80;100120.00;;;;10032222;29;20217;-74
2020/12/13 00:27:22;;;;;;;24.00;13.20;;;;;7.80;100121.00;;;;10032016;29;20205;-74
2020/12/13 00:32:28;;;;;;;22.83;13.97;;;;;7.80;100135.00;;;;10047407;29;20244;-74
2020/12/13 00:37:31;;;;;;;29.93;16.20;;;;;7.80;100135.00;;;;10046995;29;20283;-74
2020/12/13 00:42:33;;;;;;;32.47;16.93;;;;;7.70;100141.00;;;;10031864;29;20267;-74
2020/12/13 00:47:38;;;;;;;36.90;18.00;;;;;7.70;100140.00;;;;10030967;29;20712;-74
2020/12/13 00:52:41;;;;;;;36.90;19.63;;;;;7.60;100153.00;;;;10046925;29;20213;-74
2020/12/13 00:57:44;;;;;;;34.60;19.47;;;;;7.60;100160.00;;;;10046018;29;20197;-74
2020/12/13 01:02:47;;;;;;;30.87;18.20;;;;;7.50;100163.00;;;;10030619;29;20718;-74
2020/12/13 01:07:50;;;;;;;36.23;18.63;;;;;7.50;100179.00;;;;10045975;29;20208;-74
2020/12/13 01:12:52;;;;;;;33.90;17.77;;;;;7.50;100170.00;;;;10061060;29;20205;-74
2020/12/13 01:17:54;;;;;;;35.00;18.60;;;;;7.40;100187.00;;;;10030277;29;20606;-74
2020/12/13 01:22:56;;;;;;;26.90;15.43;;;;;7.40;100198.00;;;;10030474;29;20228;-74
2020/12/13 01:27:58;;;;;;;26.43;15.43;;;;;7.40;100211.00;;;;10014814;29;20209;-74
2020/12/13 01:33:00;;;;;;;24.60;15.27;;;;;7.40;100214.00;;;;10014621;29;20205;-74
2020/12/13 01:38:03;;;;;;;26.67;12.63;;;;;7.40;100221.00;;;;10045011;29;20253;-74
2020/12/13 01:43:07;;;;;;;25.80;13.57;;;;;7.40;100215.00;;;;10013687;29;20693;-74
2020/12/13 01:48:09;;;;;;;24.90;12.60;;;;;7.30;100226.00;;;;10044183;29;20272;-74
2020/12/13 01:53:15;;;;;;;22.70;11.27;;;;;7.30;100224.00;;;;10043865;29;20546;-75
2020/12/13 01:58:29;;;;;;;22.33;10.77;;;;;7.20;100239.00;;;;10059295;29;20292;-74
2020/12/13 02:03:38;;;;;;;20.20;9.50;;;;;7.10;100241.00;;;;9993088;29;20218;-74
2020/12/13 02:08:42;;;;;;;25.53;8.93;;;;;7.10;100240.00;;;;10005365;29;20205;-74
2020/12/13 02:13:46;;;;;;;14.97;8.20;;;;;7.00;100244.00;;;;10014595;29;20217;-74
2020/12/13 02:18:48;;;;;;;19.20;7.77;;;;;6.90;100250.00;;;;10042946;29;20200;-75
2020/12/13 02:23:50;;;;;;;19.57;7.37;;;;;6.80;100247.00;;;;10043071;29;20224;-75
2020/12/13 02:28:53;;;;;;;17.90;7.27;;;;;6.80;100253.00;;;;10042702;29;20255;-74
2020/12/13 02:33:55;;;;;;;20.63;7.33;;;;;6.70;100247.00;;;;10042615;29;20209;-75
2020/12/13 02:38:58;;;;;;;20.87;7.30;;;;;6.70;100256.00;;;;10042346;29;20261;-75
2020/12/13 02:44:00;;;;;;;14.23;6.17;;;;;6.70;100266.00;;;;10059862;29;20267;-75
2020/12/13 02:49:03;;;;;;;15.37;6.50;;;;;6.80;100276.00;;;;10026944;29;20205;-75
2020/12/13 02:54:05;;;;;;;19.63;7.97;;;;;6.90;100270.00;;;;10041333;29;20335;-75
2020/12/13 02:59:08;;;;;;;13.73;5.40;;;;;7.00;100275.00;;;;10042301;29;20201;-75
2020/12/13 03:04:11;;;;;;;18.47;5.87;;;;;7.10;100285.00;;;;10003965;29;20228;-75
2020/12/13 03:09:13;;;;;;;12.87;5.57;;;;;7.10;100282.00;;;;10020427;29;20202;-75
2020/12/13 03:14:15;;;;;;;13.40;5.53;;;;;7.20;100278.00;;;;10032043;29;20208;-75
2020/12/13 03:19:17;;;;;;;14.47;5.23;;;;;7.20;100281.00;;;;10011671;29;20213;-75
2020/12/13 03:24:19;;;;;;;15.03;5.30;;;;;7.20;100282.00;;;;10041926;29;20283;-75
2020/12/13 03:29:22;;;;;;;15.77;4.93;;;;;7.20;100286.00;;;;10041886;29;20588;-75
2020/12/13 03:34:24;;;;;;;15.87;5.50;;;;;7.20;100292.00;;;;10041591;29;20201;-75
2020/12/13 03:39:27;;;;;;;11.17;5.13;;;;;7.20;100302.00;;;;10041342;29;20205;-75
2020/12/13 03:44:29;;;;;;;20.83;5.33;;;;;7.10;100299.00;;;;10041657;29;20248;-75
2020/12/13 03:49:31;;;;;;;9.50;4.57;;;;;7.10;100313.00;;;;10041319;29;20209;-75
2020/12/13 03:54:34;;;;;;;16.83;5.57;;;;;7.20;100315.00;;;;10041310;29;20197;-75
2020/12/13 03:59:36;;;;;;;11.67;5.40;;;;;7.20;100332.00;;;;10040795;29;20265;-75
2020/12/13 04:04:38;;;;;;;11.83;4.70;;;;;7.20;100325.00;;;;10041485;29;20240;-75
2020/12/13 04:09:40;;;;;;;14.53;5.93;;;;;7.10;100331.00;;;;10048345;29;20225;-75
2020/12/13 04:14:42;;;;;;;13.13;5.23;;;;;7.10;100335.00;;;;10063562;29;20299;-75
2020/12/13 04:19:44;;;;;;;9.47;4.50;;;;;7.10;100335.00;;;;10032282;29;20208;-75
2020/12/13 04:24:46;;;;;;;10.23;4.97;;;;;7.10;100352.00;;;;10047565;29;20232;-75
2020/12/13 04:29:48;;;;;;;12.77;6.00;;;;;7.10;100356.00;;;;10032034;29;20205;-75
2020/12/13 04:34:51;;;;;;;11.40;4.90;;;;;7.10;100363.00;;;;10031592;29;20296;-75
2020/12/13 04:39:54;;;;;;;15.57;5.20;;;;;7.10;100364.00;;;;10047075;29;20209;-75
2020/12/13 04:44:57;;;;;;;12.60;4.87;;;;;7.00;100376.00;;;;10061862;29;20300;-75
2020/12/13 04:50:04;;;;;;;10.17;4.80;;;;;7.00;100368.00;;;;10031882;29;20680;-75
2020/12/13 04:55:06;;;;;;;10.87;5.30;;;;;7.00;100369.00;;;;10031198;29;20254;-75
2020/12/13 05:00:08;;;;;;;13.90;5.57;;;;;7.00;100384.00;;;;10045763;29;20304;-75
2020/12/13 05:05:11;;;;;;;12.53;4.57;;;;;7.00;100378.00;;;;10045330;29;20247;-75
2020/12/13 05:10:13;;;;;;;10.97;5.43;;;;;7.00;100397.00;;;;10031062;29;20306;-75
2020/12/13 05:15:15;;;;;;;14.43;5.03;;;;;7.00;100392.00;;;;10045560;29;20749;-75
2020/12/13 05:20:19;;;;;;;15.33;5.10;;;;;6.90;100388.00;;;;10029326;29;20215;-75
2020/12/13 05:25:32;;;;;;;8.03;3.80;;;;;6.90;100392.00;;;;10045286;29;21020;-75
2020/12/13 05:30:45;;;;;;;12.43;5.50;;;;;6.80;100392.00;;;;10045845;29;20201;-74
2020/12/13 05:35:47;;;;;;;12.40;4.47;;;;;6.80;100399.00;;;;10044981;29;20243;-75
2020/12/13 05:40:50;;;;;;;13.33;4.83;;;;;6.80;100396.00;;;;10060291;29;20261;-75
2020/12/13 05:56:08;;;;;;;9.63;3.80;;;;;6.80;100384.00;;;;10059121;29;20205;-75
2020/12/13 06:01:11;;;;;;;9.63;3.80;;;;;6.80;100391.00;;;;10028903;29;20250;-75
2020/12/13 06:06:16;;;;;;;8.90;3.30;;;;;6.80;100398.00;;;;10044265;29;20224;-75
2020/12/13 06:11:20;;;;;;;12.47;4.00;;;;;6.70;100405.00;;;;10043603;29;20196;-75
2020/12/13 06:16:23;;;;;;;11.90;3.60;;;;;6.80;100402.00;;;;10059379;29;20216;-75
2020/12/13 06:21:26;;;;;;;11.27;3.97;;;;;6.70;100395.00;;;;10043139;29;20235;-75
2020/12/13 06:26:29;;;;;;;14.53;4.57;;;;;6.60;100404.00;;;;10043153;29;20237;-75
2020/12/13 06:31:34;;;;;;;7.70;3.53;;;;;6.50;100406.00;;;;10058384;29;20225;-75
2020/12/13 06:36:37;;;;;;;11.27;4.23;;;;;6.30;100404.00;;;;10042844;29;20683;-75
2020/12/13 06:41:42;;;;;;;10.67;3.90;;;;;6.00;100407.00;;;;10042610;29;20205;-74
2020/12/13 06:46:47;;;;;;;14.10;3.93;;;;;5.70;100404.00;;;;10030790;29;20218;-74
2020/12/13 06:51:50;;;;;;;8.53;4.47;;;;;5.50;100416.00;;;;10020086;29;20596;-75
2020/12/13 06:56:52;;;;;;;12.97;4.00;;;;;5.40;100432.00;;;;9974102;29;20278;-75
2020/12/13 07:01:54;;;;;;;8.93;4.23;;;;;5.30;100434.00;;;;10031547;29;20258;-75
2020/12/13 07:12:12;;;;;;;13.27;5.20;;;;;5.20;100445.00;;;;10041939;29;20231;-75
2020/12/13 07:17:18;;;;;;;11.33;5.50;;;;;5.20;100452.00;;;;10026555;29;20680;-75
2020/12/13 07:22:31;;;;;;;13.10;5.80;;;;;5.20;100456.00;;;;10041577;29;20320;-75
2020/12/13 07:27:34;;;;;;;15.77;6.43;;;;;5.20;100465.00;;;;10027007;29;20247;-75
2020/12/13 07:32:36;;;;;;;20.33;8.00;;;;;5.20;100472.00;;;;10041584;29;20288;-75
2020/12/13 07:37:40;;;;;;;22.97;8.60;;;;;5.20;100467.00;;;;10041439;29;20208;-75
2020/12/13 07:42:56;;;;;;;15.30;6.90;;;;;5.30;100469.00;;;;10031564;29;20233;-75
2020/12/13 07:48:00;;;;;;;14.53;6.80;;;;;5.40;100476.00;;;;10063148;29;20260;-75
2020/12/13 07:53:03;;;;;;;20.27;6.70;;;;;5.50;100473.00;;;;10048848;29;20253;-75
2020/12/13 07:58:05;;;;;;;21.80;7.73;;;;;5.70;100481.00;;;;10033063;29;20257;-75
2020/12/13 08:03:07;;;;;;;12.13;5.97;;;;;5.80;100499.00;;;;10017532;29;20277;-75
2020/12/13 08:08:09;;;;;;;14.43;6.37;;;;;6.00;100511.00;;;;9995364;29;20302;-75
2020/12/13 08:13:14;;;;;;;17.77;8.23;;;;;6.20;100522.00;;;;10030271;29;20248;-75
2020/12/13 08:18:18;;;;;;;16.87;7.30;;;;;6.40;100523.00;;;;10032045;29;20610;-75
2020/12/13 08:23:24;;;;;;;17.40;8.03;;;;;6.60;100522.00;;;;10031905;29;20665;-75
2020/12/13 08:28:30;;;;;;;18.13;8.70;;;;;6.60;100519.00;;;;10031780;29;20205;-75
2020/12/13 08:33:33;;;;;;;16.77;6.60;;;;;6.70;100524.00;;;;10034052;29;20202;-75
2020/12/13 08:38:35;;;;;;;17.33;6.30;;;;;6.70;100521.00;;;;10008936;29;20197;-75
2020/12/13 08:43:37;;;;;;;14.57;5.80;;;;;6.50;100532.00;;;;10017086;29;20240;-75
2020/12/13 08:48:39;;;;;;;14.43;6.23;;;;;6.50;100532.00;;;;10031781;29;20665;-75
2020/12/13 08:53:41;;;;;;;13.10;5.60;;;;;6.60;100529.00;;;;10029998;29;20257;-75
2020/12/13 08:58:50;;;;;;;17.07;6.57;;;;;6.60;100530.00;;;;10015629;29;20740;-75
2020/12/13 09:03:53;;;;;;;19.00;5.93;;;;;6.60;100536.00;;;;10016793;29;20233;-75
2020/12/13 09:09:06;;;;;;;15.30;5.47;;;;;6.60;100547.00;;;;10015825;29;20212;-75
2020/12/13 09:14:09;;;;;;;8.03;4.50;;;;;6.60;100545.00;;;;10061123;29;20208;-75
2020/12/13 09:19:12;;;;;;;13.70;5.60;;;;;6.80;100548.00;;;;10061913;29;20294;-75
2020/12/13 09:24:17;;;;;;;12.37;5.53;;;;;7.10;100544.00;;;;10044140;29;20229;-75
2020/12/13 09:29:19;;;;;;;12.93;4.87;;;;;7.30;100546.00;;;;10022365;29;20217;-75
2020/12/13 09:34:22;;;;;;;10.13;5.20;;;;;7.40;100554.00;;;;10022170;29;20202;-75
2020/12/13 09:39:25;;;;;;;14.10;4.77;;;;;7.50;100538.00;;;;10006780;29;20210;-75
2020/12/13 09:44:27;;;;;;;13.13;4.50;;;;;7.60;100543.00;;;;10021268;29;20705;-75
2020/12/13 09:49:30;;;;;;;12.80;5.00;;;;;7.90;100545.00;;;;10013726;29;20205;-75
2020/12/13 09:54:33;;;;;;;8.53;4.77;;;;;8.10;100543.00;;;;10044277;29;20224;-75
2020/12/13 09:59:35;;;;;;;11.60;3.93;;;;;8.40;100555.00;;;;10028533;29;20205;-75
2020/12/13 10:04:37;;;;;;;10.37;3.83;;;;;8.60;100544.00;;;;10027794;29;20224;-75
2020/12/13 10:09:40;;;;;;;13.33;4.33;;;;;8.60;100541.00;;;;10059127;29;20203;-75
2020/12/13 10:14:42;;;;;;;11.03;4.57;;;;;8.40;100542.00;;;;10043098;29;20209;-75
2020/12/13 10:19:44;;;;;;;8.77;3.80;;;;;8.40;100536.00;;;;10042866;29;20201;-75
2020/12/13 10:24:46;;;;;;;12.90;4.57;;;;;8.50;100537.00;;;;10028141;29;20228;-75
2020/12/13 10:29:48;;;;;;;8.73;4.23;;;;;8.50;100537.00;;;;10013177;29;20257;-75
2020/12/13 10:34:50;;;;;;;18.63;4.17;;;;;8.50;100532.00;;;;10042686;29;20209;-75
2020/12/13 10:39:52;;;;;;;13.43;4.97;;;;;8.50;100521.00;;;;10042983;29;20265;-75
2020/12/13 10:44:55;;;;;;;16.60;4.53;;;;;8.50;100522.00;;;;10042619;29;20566;-75
2020/12/13 10:49:57;;;;;;;11.90;4.17;;;;;8.50;100520.00;;;;10027783;29;20212;-75
2020/12/13 10:54:59;;;;;;;13.40;5.00;;;;;8.50;100516.00;;;;10035035;29;20610;-75
2020/12/13 11:00:03;;;;;;;10.93;4.50;;;;;8.50;100518.00;;;;10041943;29;20268;-75
2020/12/13 11:05:06;;;;;;;9.63;4.77;;;;;8.60;100532.00;;;;10025798;29;20311;-75
2020/12/13 11:10:08;;;;;;;13.27;4.43;;;;;8.80;100526.00;;;;10026984;29;20300;-75
2020/12/13 11:15:11;;;;;;;15.03;4.07;;;;;8.90;100523.00;;;;10041069;29;20249;-75
2020/12/13 11:20:13;;;;;;;10.67;4.43;;;;;9.00;100530.00;;;;10041586;29;20288;-75
2020/12/13 11:25:17;;;;;;;12.93;4.73;;;;;9.30;100522.00;;;;10026376;29;20633;-75
2020/12/13 11:30:19;;;;;;;14.10;4.37;;;;;10.00;100519.00;;;;10056927;29;20205;-75
2020/12/13 11:35:22;;;;;;;11.37;3.97;;;;;9.90;100505.00;;;;10057769;29;20241;-75
2020/12/13 11:40:24;;;;;;;9.57;4.07;;;;;9.70;100504.00;;;;10040944;29;20209;-75
2020/12/13 11:45:27;;;;;;;12.77;5.40;;;;;9.70;100497.00;;;;10040902;29;20251;-75
2020/12/13 11:50:40;;;;;;;10.27;3.80;;;;;9.70;100498.00;;;;10041016;29;20205;-76
2020/12/13 11:55:55;;;;;;;8.83;3.43;;;;;9.90;100501.00;;;;10026954;29;20228;-75
2020/12/13 12:00:57;;;;;;;11.33;4.40;;;;;10.30;100498.00;;;;10040230;29;20209;-76
2020/12/13 12:05:59;;;;;;;6.63;3.87;;;;;10.60;100497.00;;;;10057069;29;20229;-75
2020/12/13 12:11:02;;;;;;;9.20;3.77;;;;;10.20;100500.00;;;;10041091;29;20244;-76
2020/12/13 12:16:06;;;;;;;7.63;4.93;;;;;9.90;100493.00;;;;10034351;29;20735;-75
2020/12/13 12:21:17;;;;;;;9.13;3.80;;;;;9.80;100504.00;;;;10002446;29;20225;-76
2020/12/13 12:26:19;;;;;;;8.53;3.97;;;;;9.80;100491.00;;;;10004264;29;20229;-75
2020/12/13 12:31:22;;;;;;;7.10;3.87;;;;;9.70;100495.00;;;;10025749;29;20205;-76
2020/12/13 12:36:27;;;;;;;14.37;4.40;;;;;9.60;100496.00;;;;10025711;29;20206;-75
2020/12/13 12:41:30;;;;;;;7.77;3.90;;;;;9.60;100482.00;;;;10024155;29;20198;-76
2020/12/13 12:46:32;;;;;;;12.50;4.63;;;;;9.60;100469.00;;;;10054309;29;20284;-76
2020/12/13 12:51:35;;;;;;;10.10;3.83;;;;;9.70;100475.00;;;;10046447;29;20205;-76
2020/12/13 12:56:42;;;;;;;8.00;3.70;;;;;9.80;100476.00;;;;10030714;29;20220;-76
2020/12/13 13:01:48;;;;;;;9.60;4.40;;;;;9.90;100476.00;;;;10030522;29;20196;-76
2020/12/13 13:11:53;;;;;;;9.60;3.70;;;;;9.70;100476.00;;;;10061413;29;20669;-76
2020/12/13 13:17:05;;;;;;;10.37;4.20;;;;;9.60;100481.00;;;;10079124;29;20251;-75
2020/12/13 13:22:08;;;;;;;7.50;2.77;;;;;9.30;100471.00;;;;10083782;29;20216;-76
2020/12/13 13:27:10;;;;;;;8.30;3.47;;;;;9.00;100469.00;;;;10098989;29;20287;-76
2020/12/13 13:32:12;;;;;;;7.07;3.60;;;;;8.80;100472.00;;;;10083664;29;20621;-77
2020/12/13 13:37:16;;;;;;;8.00;3.53;;;;;8.70;100465.00;;;;10082550;29;20283;-76
2020/12/13 13:42:18;;;;;;;13.50;3.60;;;;;8.50;100464.00;;;;10098277;29;20224;-76
2020/12/13 13:47:32;;;;;;;7.90;3.73;;;;;8.30;100453.00;;;;10061080;29;20892;-75
2020/12/13 13:52:34;;;;;;;9.97;3.80;;;;;8.00;100457.00;;;;10043704;29;20209;-76
2020/12/13 13:57:37;;;;;;;12.47;4.07;;;;;7.90;100448.00;;;;10034667;29;20205;-76
2020/12/13 14:02:39;;;;;;;15.33;3.93;;;;;7.90;100451.00;;;;10025294;29;20229;-76
2020/12/13 14:12:43;;;;;;;14.60;4.70;;;;;8.10;100451.00;;;;10043991;29;20209;-76
2020/12/13 14:17:45;;;;;;;10.70;4.47;;;;;8.00;100444.00;;;;10028003;29;20232;-76
2020/12/13 14:22:48;;;;;;;12.70;4.73;;;;;7.80;100454.00;;;;10020269;29;20282;-76
2020/12/13 14:27:50;;;;;;;7.73;4.00;;;;;7.70;100440.00;;;;9989614;29;20234;-76
2020/12/13 14:32:52;;;;;;;9.53;5.20;;;;;7.50;100442.00;;;;10005092;29;20237;-76
2020/12/13 14:37:55;;;;;;;6.63;4.30;;;;;7.40;100433.00;;;;10004744;29;20661;-76
2020/12/13 14:42:57;;;;;;;7.83;4.40;;;;;7.30;100424.00;;;;10024190;29;20285;-76
2020/12/13 14:48:05;;;;;;;7.07;4.67;;;;;7.20;100421.00;;;;10027367;29;20209;-76
2020/12/13 14:53:07;;;;;;;11.67;5.00;;;;;7.20;100419.00;;;;10042545;29;20569;-76
2020/12/13 14:58:10;;;;;;;9.43;4.43;;;;;7.10;100400.00;;;;10017387;29;20888;-76
2020/12/13 15:03:15;;;;;;;10.23;4.23;;;;;7.00;100410.00;;;;10029075;29;20212;-76
2020/12/13 15:08:17;;;;;;;10.53;3.77;;;;;6.90;100397.00;;;;10066018;29;20250;-76
2020/12/13 15:18:32;;;;;;;7.30;3.33;;;;;6.80;100390.00;;;;10041572;29;20208;-76
2020/12/13 15:23:35;;;;;;;5.63;3.07;;;;;6.70;100403.00;;;;10041743;29;20228;-76
2020/12/13 15:28:37;;;;;;;6.97;3.20;;;;;6.60;100407.00;;;;10026480;29;20220;-77
2020/12/13 15:33:39;;;;;;;8.20;3.60;;;;;6.60;100398.00;;;;10011253;29;20205;-76
2020/12/13 15:38:41;;;;;;;6.40;3.47;;;;;6.50;100383.00;;;;10025861;29;20201;-76
2020/12/13 15:43:44;;;;;;;11.30;3.20;;;;;6.50;100377.00;;;;10025669;29;20570;-76
2020/12/13 15:48:47;;;;;;;8.33;3.30;;;;;6.40;100361.00;;;;10010600;29;20236;-76
2020/12/13 15:53:49;;;;;;;8.10;3.43;;;;;6.40;100364.00;;;;10026299;29;20205;-76
2020/12/13 15:58:51;;;;;;;6.37;3.13;;;;;6.40;100354.00;;;;10025851;29;20240;-76
2020/12/13 16:03:55;;;;;;;14.47;4.07;;;;;6.40;100353.00;;;;10061968;29;20301;-76
2020/12/13 16:08:57;;;;;;;12.17;3.50;;;;;6.40;100357.00;;;;10063173;29;20204;-76
2020/12/13 16:14:00;;;;;;;6.50;3.30;;;;;6.40;100343.00;;;;10032696;29;20213;-77
2020/12/13 16:19:02;;;;;;;11.70;3.70;;;;;6.40;100365.00;;;;10047395;29;20696;-76
2020/12/13 16:24:05;;;;;;;5.10;2.20;;;;;6.40;100364.00;;;;10047748;29;20216;-77
2020/12/13 16:29:07;;;;;;;5.93;3.60;;;;;6.40;100369.00;;;;10031985;29;20204;-76
2020/12/13 16:34:10;;;;;;;8.67;3.47;;;;;6.40;100357.00;;;;10031431;29;20209;-76
2020/12/13 16:39:20;;;;;;;10.10;3.00;;;;;6.40;100356.00;;;;10031512;29;20264;-76
2020/12/13 16:44:30;;;;;;;12.23;3.70;;;;;6.40;100345.00;;;;10062263;29;20238;-76
2020/12/13 16:54:40;;;;;;;10.17;3.80;;;;;6.40;100334.00;;;;10031629;29;20264;-77
2020/12/13 16:59:43;;;;;;;14.23;3.63;;;;;6.40;100332.00;;;;10031154;29;20212;-76
2020/12/13 17:04:45;;;;;;;12.90;3.60;;;;;6.40;100320.00;;;;10045877;29;20256;-76
2020/12/13 17:09:48;;;;;;;14.93;4.83;;;;;6.50;100305.00;;;;10045947;29;20197;-76
2020/12/13 17:14:50;;;;;;;9.83;3.67;;;;;6.40;100298.00;;;;10044854;29;20208;-77
2020/12/13 17:19:52;;;;;;;12.37;3.17;;;;;6.40;100289.00;;;;10030092;29;20250;-76
2020/12/13 17:24:59;;;;;;;11.40;3.40;;;;;6.40;100287.00;;;;10045408;29;20228;-76
2020/12/13 17:30:02;;;;;;;8.93;3.30;;;;;6.40;100270.00;;;;10030029;29;20227;-76
2020/12/13 17:35:04;;;;;;;8.80;4.13;;;;;6.50;100274.00;;;;10060730;29;20217;-76
2020/12/13 17:40:06;;;;;;;9.70;4.27;;;;;6.50;100277.00;;;;10060239;29;20272;-77
2020/12/13 17:45:11;;;;;;;10.63;4.00;;;;;6.50;100291.00;;;;10044009;29;20654;-76
2020/12/13 18:00:56;;;;;;;7.83;2.93;;;;;6.60;100280.00;;;;10018305;29;20213;-77
2020/12/13 18:05:58;;;;;;;13.03;3.50;;;;;6.50;100274.00;;;;10043718;29;20793;-76
2020/12/13 18:11:04;;;;;;;6.70;3.20;;;;;6.60;100263.00;;;;10028668;29;20216;-76
2020/12/13 18:16:10;;;;;;;9.80;3.90;;;;;6.60;100254.00;;;;10043961;29;20217;-77
2020/12/13 18:21:19;;;;;;;10.63;2.67;;;;;6.60;100258.00;;;;10043170;29;20201;-76
2020/12/13 18:26:21;;;;;;;8.57;3.67;;;;;6.60;100250.00;;;;10027989;29;20700;-77
2020/12/13 18:31:23;;;;;;;9.10;2.93;;;;;6.60;100238.00;;;;10060444;29;20340;-77
2020/12/13 18:36:26;;;;;;;6.73;3.13;;;;;6.60;100234.00;;;;10028008;29;20209;-76
2020/12/13 18:41:28;;;;;;;5.33;2.90;;;;;6.50;100231.00;;;;10027509;29;20201;-76
2020/12/13 18:46:30;;;;;;;8.70;2.93;;;;;6.50;100225.00;;;;10057904;29;20232;-76
2020/12/13 18:51:32;;;;;;;6.47;2.37;;;;;6.50;100225.00;;;;10059596;29;20209;-76
2020/12/13 18:56:35;;;;;;;8.20;3.43;;;;;6.50;100241.00;;;;10042476;29;20227;-76
2020/12/13 19:01:45;;;;;;;12.27;3.37;;;;;6.60;100234.00;;;;10041807;29;20205;-76
2020/12/13 19:06:52;;;;;;;4.70;2.47;;;;;6.60;100236.00;;;;10041868;29;20232;-76
2020/12/13 19:11:59;;;;;;;6.33;2.93;;;;;6.70;100235.00;;;;10042226;29;20257;-76
2020/12/13 19:17:02;;;;;;;10.27;3.07;;;;;6.70;100225.00;;;;10026374;29;20236;-76
2020/12/13 19:22:07;;;;;;;9.20;2.90;;;;;6.70;100224.00;;;;10040882;29;20212;-76
2020/12/13 19:27:09;;;;;;;9.73;2.57;;;;;6.70;100213.00;;;;10056996;29;20252;-76
2020/12/13 19:32:12;;;;;;;8.77;2.60;;;;;6.70;100200.00;;;;10041863;29;20264;-75
2020/12/13 19:37:14;;;;;;;10.73;2.77;;;;;6.80;100209.00;;;;10030094;29;20597;-76
2020/12/13 19:42:17;;;;;;;12.20;3.77;;;;;6.90;100197.00;;;;10049137;29;20228;-76
2020/12/13 19:47:19;;;;;;;6.07;1.87;;;;;6.90;100192.00;;;;10065244;29;20228;-76
2020/12/13 19:52:22;;;;;;;15.37;2.97;;;;;7.00;100200.00;;;;10033838;29;20283;-76
2020/12/13 19:57:24;;;;;;;6.13;2.57;;;;;7.00;100178.00;;;;10064410;29;20249;-76
2020/12/13 20:02:27;;;;;;;7.37;2.40;;;;;7.00;100170.00;;;;10047952;29;20230;-76
2020/12/13 20:07:29;;;;;;;6.33;2.17;;;;;7.00;100173.00;;;;10047936;29;20312;-76
2020/12/13 20:12:37;;;;;;;2.93;1.50;;;;;7.10;100164.00;;;;10033032;29;20216;-76
2020/12/13 20:46:09;;;;;;;7.67;2.10;;;;;7.30;100171.00;;;;10019202;29;20231;-76
2020/12/13 21:20:39;;;;;;;4.80;2.20;;;;;7.30;100188.00;;;;10030330;29;20201;-77
2020/12/13 21:41:12;;;;;;;3.63;1.50;;;;;7.60;100138.00;;;;10029791;29;20564;-77
2020/12/13 21:51:40;;;;;;;4.43;1.37;;;;;7.70;100134.00;;;;10011409;29;20253;-76
2020/12/13 21:56:52;;;;;;;3.67;1.33;;;;;7.70;100139.00;;;;10060847;29;20257;-76
2020/12/13 22:27:54;;;;;;;3.97;1.40;;;;;7.90;100144.00;;;;10022066;29;20198;-77
2020/12/13 22:32:57;;;;;;;4.03;1.30;;;;;7.90;100132.00;;;;10004956;29;20206;-77
2020/12/13 22:38:00;;;;;;;3.13;1.33;;;;;7.90;100142.00;;;;10020048;29;20209;-77
2020/12/13 22:43:02;;;;;;;2.23;0.73;;;;;8.00;100134.00;;;;10023375;29;20227;-77
2020/12/13 22:48:05;;;;;;;3.90;1.40;;;;;8.00;100114.00;;;;10027611;29;20924;-77
2020/12/13 22:53:07;;;;;;;4.87;1.73;;;;;7.90;100122.00;;;;10011908;29;20246;-77
2020/12/13 22:58:09;;;;;;;6.40;1.83;;;;;8.00;100122.00;;;;10012199;29;20264;-77
2020/12/13 23:03:12;;;;;;;5.83;1.57;;;;;8.00;100113.00;;;;10026792;29;20268;-77
2020/12/13 23:08:14;;;;;;;6.93;1.83;;;;;8.00;100117.00;;;;10057995;29;20204;-77
2020/12/13 23:13:17;;;;;;;4.77;2.00;;;;;8.00;100102.00;;;;10041090;29;20220;-77
2020/12/13 23:18:19;;;;;;;4.90;1.77;;;;;8.00;100097.00;;;;10011409;29;20197;-77
2020/12/13 23:23:21;;;;;;;3.90;1.90;;;;;8.10;100103.00;;;;10041863;29;20253;-77
2020/12/13 23:28:23;;;;;;;3.27;1.50;;;;;8.10;100103.00;;;;10042039;29;20208;-77
2020/12/13 23:33:25;;;;;;;3.03;1.50;;;;;8.10;100101.00;;;;10058163;29;20205;-77
2020/12/13 23:38:28;;;;;;;2.63;1.17;;;;;8.10;100087.00;;;;10056862;29;20661;-77
2020/12/13 23:43:30;;;;;;;4.63;1.50;;;;;8.10;100076.00;;;;10041232;29;20232;-77
2020/12/13 23:48:33;;;;;;;3.27;1.57;;;;;8.10;100076.00;;;;10026470;29;20247;-77
2020/12/13 23:53:35;;;;;;;4.07;1.53;;;;;8.10;100076.00;;;;10026265;29;20285;-77
2020/12/13 23:58:37;;;;;;;3.03;1.73;;;;;8.10;100077.00;;;;10056661;29;20204;-77
